GPLMD EGGP-EGPD
Flight info
| Callsign | GPLMD |
|---|---|
| Flight time | 1h 10m |
| Altitude | 24000 |
| Route | POL N601 GRICE P600 ADN |
| Aircraft | B60T/L-SDFGRY/C |
Departure
| Time | 2026-05-08 02:46 |
|---|---|
| Airport | Liverpool John Lennon Airport (EGGP) |
Arrival
| Time | 2026-05-08 03:56 |
|---|---|
| Airport | Aberdeen International Airport (EGPD) |
| Time | Latitude | Longitude | Altitude | Speed | Heading |
|---|---|---|---|---|---|
| 2026-05-08 02:19 | 53.33706 | -2.83717 | 82 ft | 0 kts | 82° |
| 2026-05-08 02:27 | 53.33706 | -2.83716 | 80 ft | 0 kts | 82° |
| 2026-05-08 02:36 | 53.33706 | -2.83713 | 82 ft | 2 kts | 82° |
| 2026-05-08 02:36 | 53.33674 | -2.83659 | 79 ft | 7 kts | 195° |
| 2026-05-08 02:36 | 53.33661 | -2.83679 | 79 ft | 6 kts | 247° |
| 2026-05-08 02:36 | 53.33656 | -2.83734 | 79 ft | 2 kts | 264° |
| 2026-05-08 02:37 | 53.33646 | -2.83791 | 79 ft | 4 kts | 217° |
| 2026-05-08 02:37 | 53.33606 | -2.83797 | 81 ft | 9 kts | 180° |
| 2026-05-08 02:37 | 53.33580 | -2.83852 | 82 ft | 6 kts | 267° |
| 2026-05-08 02:37 | 53.33578 | -2.83900 | 79 ft | 0 kts | 265° |
| 2026-05-08 02:40 | 53.33576 | -2.83980 | 79 ft | 13 kts | 264° |
| 2026-05-08 02:40 | 53.33567 | -2.84129 | 81 ft | 12 kts | 264° |
| 2026-05-08 02:40 | 53.33561 | -2.84260 | 80 ft | 11 kts | 265° |
| 2026-05-08 02:40 | 53.33556 | -2.84381 | 80 ft | 11 kts | 266° |
| 2026-05-08 02:41 | 53.33550 | -2.84514 | 80 ft | 12 kts | 265° |
| 2026-05-08 02:41 | 53.33541 | -2.84668 | 80 ft | 15 kts | 263° |
| 2026-05-08 02:41 | 53.33531 | -2.84861 | 79 ft | 13 kts | 264° |
| 2026-05-08 02:41 | 53.33527 | -2.84953 | 79 ft | 7 kts | 270° |
| 2026-05-08 02:42 | 53.33526 | -2.85034 | 79 ft | 7 kts | 265° |
| 2026-05-08 02:42 | 53.33522 | -2.85144 | 79 ft | 12 kts | 271° |
| 2026-05-08 02:42 | 53.33514 | -2.85321 | 79 ft | 18 kts | 265° |
| 2026-05-08 02:42 | 53.33505 | -2.85512 | 79 ft | 15 kts | 265° |
| 2026-05-08 02:43 | 53.33498 | -2.85665 | 79 ft | 12 kts | 263° |
| 2026-05-08 02:43 | 53.33491 | -2.85799 | 79 ft | 11 kts | 266° |
| 2026-05-08 02:43 | 53.33486 | -2.85930 | 79 ft | 13 kts | 267° |
| 2026-05-08 02:43 | 53.33478 | -2.86099 | 79 ft | 15 kts | 266° |
| 2026-05-08 02:44 | 53.33471 | -2.86257 | 79 ft | 12 kts | 266° |
| 2026-05-08 02:44 | 53.33462 | -2.86387 | 79 ft | 10 kts | 245° |
| 2026-05-08 02:44 | 53.33410 | -2.86431 | 79 ft | 8 kts | 169° |
| 2026-05-08 02:44 | 53.33357 | -2.86420 | 79 ft | 8 kts | 168° |
| 2026-05-08 02:45 | 53.33309 | -2.86367 | 77 ft | 8 kts | 126° |
| 2026-05-08 02:45 | 53.33301 | -2.86292 | 77 ft | 0 kts | 85° |
| 2026-05-08 02:45 | 53.33317 | -2.85927 | 79 ft | 76 kts | 85° |
| 2026-05-08 02:45 | 53.33382 | -2.84822 | 427 ft | 103 kts | 85° |
| 2026-05-08 02:46 | 53.33450 | -2.83593 | 1011 ft | 110 kts | 88° |
| 2026-05-08 02:46 | 53.33516 | -2.82263 | 1535 ft | 120 kts | 89° |
| 2026-05-08 02:46 | 53.33572 | -2.80738 | 1975 ft | 139 kts | 91° |
| 2026-05-08 02:46 | 53.33747 | -2.79185 | 2810 ft | 140 kts | 64° |
| 2026-05-08 02:47 | 53.34457 | -2.77940 | 3456 ft | 159 kts | 29° |
| 2026-05-08 02:47 | 53.35537 | -2.77547 | 4118 ft | 164 kts | 351° |
| 2026-05-08 02:47 | 53.36691 | -2.77870 | 4763 ft | 169 kts | 349° |
| 2026-05-08 02:47 | 53.37826 | -2.78119 | 5577 ft | 166 kts | 349° |
| 2026-05-08 02:48 | 53.38976 | -2.78336 | 6323 ft | 166 kts | 352° |
| 2026-05-08 02:48 | 53.40144 | -2.78466 | 7004 ft | 170 kts | 353° |
| 2026-05-08 02:48 | 53.41322 | -2.78609 | 7697 ft | 171 kts | 351° |
| 2026-05-08 02:48 | 53.42519 | -2.78882 | 8374 ft | 174 kts | 345° |
| 2026-05-08 02:49 | 53.43727 | -2.79255 | 9025 ft | 182 kts | 351° |
| 2026-05-08 02:49 | 53.45018 | -2.79156 | 9658 ft | 186 kts | 2° |
| 2026-05-08 02:49 | 53.46285 | -2.78950 | 10391 ft | 182 kts | 358° |
| 2026-05-08 02:49 | 53.47554 | -2.78958 | 10913 ft | 188 kts | 355° |
| 2026-05-08 02:50 | 53.48891 | -2.79054 | 11464 ft | 193 kts | 357° |
| 2026-05-08 02:50 | 53.50249 | -2.78616 | 11950 ft | 202 kts | 15° |
| 2026-05-08 02:50 | 53.51544 | -2.78040 | 12758 ft | 190 kts | 12° |
| 2026-05-08 02:50 | 53.52797 | -2.77255 | 13313 ft | 198 kts | 27° |
| 2026-05-08 02:51 | 53.53886 | -2.75769 | 13817 ft | 202 kts | 49° |
| 2026-05-08 02:51 | 53.54546 | -2.73748 | 14409 ft | 199 kts | 76° |
| 2026-05-08 02:51 | 53.54859 | -2.71438 | 14829 ft | 203 kts | 78° |
| 2026-05-08 02:51 | 53.55231 | -2.69190 | 15475 ft | 198 kts | 74° |
| 2026-05-08 02:52 | 53.55689 | -2.66949 | 15850 ft | 207 kts | 71° |
| 2026-05-08 02:52 | 53.56250 | -2.64717 | 16391 ft | 205 kts | 64° |
| 2026-05-08 02:52 | 53.56962 | -2.62637 | 16920 ft | 207 kts | 60° |
| 2026-05-08 02:52 | 53.57700 | -2.60506 | 17311 ft | 214 kts | 64° |
| 2026-05-08 02:53 | 53.58326 | -2.58252 | 17856 ft | 210 kts | 69° |
| 2026-05-08 02:53 | 53.58926 | -2.56002 | 18341 ft | 213 kts | 67° |
| 2026-05-08 02:53 | 53.59574 | -2.53717 | 18671 ft | 218 kts | 66° |
| 2026-05-08 02:53 | 53.60249 | -2.51443 | 19122 ft | 216 kts | 64° |
| 2026-05-08 02:54 | 53.60965 | -2.49221 | 19566 ft | 216 kts | 62° |
| 2026-05-08 02:54 | 53.61732 | -2.47045 | 20008 ft | 215 kts | 60° |
| 2026-05-08 02:54 | 53.62501 | -2.44882 | 20435 ft | 215 kts | 61° |
| 2026-05-08 02:54 | 53.63263 | -2.42715 | 20872 ft | 215 kts | 61° |
| 2026-05-08 02:55 | 53.64041 | -2.40482 | 21074 ft | 227 kts | 61° |
| 2026-05-08 02:55 | 53.65685 | -2.35726 | 21475 ft | 241 kts | 62° |
| 2026-05-08 02:55 | 53.66524 | -2.33296 | 21683 ft | 244 kts | 62° |
| 2026-05-08 02:56 | 53.67385 | -2.30799 | 21893 ft | 246 kts | 62° |
| 2026-05-08 02:56 | 53.68250 | -2.28293 | 22112 ft | 248 kts | 62° |
| 2026-05-08 02:56 | 53.69121 | -2.25766 | 22322 ft | 249 kts | 62° |
| 2026-05-08 02:56 | 53.69992 | -2.23235 | 22537 ft | 250 kts | 62° |
| 2026-05-08 02:57 | 53.70867 | -2.20692 | 22759 ft | 250 kts | 62° |
| 2026-05-08 02:57 | 53.71740 | -2.18148 | 22979 ft | 251 kts | 62° |
| 2026-05-08 02:57 | 53.72700 | -2.15683 | 23202 ft | 252 kts | 49° |
| 2026-05-08 02:57 | 53.74052 | -2.13821 | 23432 ft | 252 kts | 28° |
| 2026-05-08 02:58 | 53.75682 | -2.12814 | 23655 ft | 250 kts | 7° |
| 2026-05-08 02:58 | 53.77398 | -2.12741 | 23843 ft | 245 kts | 348° |
| 2026-05-08 02:58 | 53.79024 | -2.13484 | 24000 ft | 242 kts | 334° |
| 2026-05-08 02:58 | 53.80591 | -2.14541 | 24028 ft | 249 kts | 333° |
| 2026-05-08 02:59 | 53.82219 | -2.15689 | 24039 ft | 258 kts | 333° |
| 2026-05-08 02:59 | 53.83898 | -2.16884 | 24048 ft | 265 kts | 333° |
| 2026-05-08 02:59 | 53.85629 | -2.18103 | 24046 ft | 273 kts | 333° |
| 2026-05-08 02:59 | 53.87404 | -2.19342 | 24049 ft | 278 kts | 333° |
| 2026-05-08 03:00 | 53.89208 | -2.20592 | 24047 ft | 282 kts | 333° |
| 2026-05-08 03:00 | 53.91037 | -2.21852 | 24049 ft | 285 kts | 334° |
| 2026-05-08 03:00 | 53.92884 | -2.23124 | 24047 ft | 287 kts | 334° |
| 2026-05-08 03:00 | 53.94739 | -2.24399 | 24044 ft | 288 kts | 334° |
| 2026-05-08 03:01 | 53.96601 | -2.25678 | 24051 ft | 290 kts | 334° |
| 2026-05-08 03:01 | 53.98474 | -2.26968 | 24049 ft | 290 kts | 333° |
| 2026-05-08 03:01 | 54.00342 | -2.28254 | 24041 ft | 290 kts | 334° |
| 2026-05-08 03:01 | 54.02215 | -2.29541 | 24044 ft | 290 kts | 334° |
| 2026-05-08 03:02 | 54.04081 | -2.30826 | 24048 ft | 289 kts | 333° |
| 2026-05-08 03:02 | 54.05948 | -2.32115 | 24048 ft | 289 kts | 333° |
| 2026-05-08 03:02 | 54.07784 | -2.33386 | 24055 ft | 289 kts | 333° |
| 2026-05-08 03:02 | 54.09645 | -2.34676 | 24052 ft | 289 kts | 333° |
| 2026-05-08 03:03 | 54.11506 | -2.35967 | 24053 ft | 289 kts | 333° |
| 2026-05-08 03:03 | 54.13370 | -2.37261 | 24054 ft | 289 kts | 333° |
| 2026-05-08 03:03 | 54.15235 | -2.38559 | 24049 ft | 290 kts | 333° |
| 2026-05-08 03:03 | 54.17102 | -2.39857 | 24045 ft | 290 kts | 333° |
| 2026-05-08 03:04 | 54.18969 | -2.41153 | 24045 ft | 289 kts | 333° |
| 2026-05-08 03:04 | 54.20834 | -2.42450 | 24047 ft | 289 kts | 333° |
| 2026-05-08 03:04 | 54.22702 | -2.43748 | 24050 ft | 290 kts | 333° |
| 2026-05-08 03:04 | 54.24568 | -2.45047 | 24044 ft | 290 kts | 333° |
| 2026-05-08 03:05 | 54.26434 | -2.46348 | 24041 ft | 289 kts | 333° |
| 2026-05-08 03:05 | 54.28299 | -2.47648 | 24043 ft | 289 kts | 333° |
| 2026-05-08 03:05 | 54.30164 | -2.48952 | 24046 ft | 289 kts | 333° |
| 2026-05-08 03:05 | 54.32027 | -2.50253 | 24044 ft | 289 kts | 333° |
| 2026-05-08 03:06 | 54.33887 | -2.51557 | 24046 ft | 289 kts | 333° |
| 2026-05-08 03:06 | 54.35755 | -2.52865 | 24045 ft | 289 kts | 333° |
| 2026-05-08 03:06 | 54.37618 | -2.54172 | 24046 ft | 290 kts | 333° |
| 2026-05-08 03:06 | 54.39460 | -2.55464 | 24044 ft | 290 kts | 333° |
| 2026-05-08 03:07 | 54.41349 | -2.56790 | 24039 ft | 290 kts | 333° |
| 2026-05-08 03:07 | 54.43214 | -2.58102 | 24040 ft | 289 kts | 333° |
| 2026-05-08 03:07 | 54.45077 | -2.59414 | 24043 ft | 289 kts | 333° |
| 2026-05-08 03:07 | 54.46913 | -2.60707 | 24041 ft | 289 kts | 333° |
| 2026-05-08 03:08 | 54.48776 | -2.62022 | 24041 ft | 290 kts | 333° |
| 2026-05-08 03:08 | 54.50640 | -2.63338 | 24036 ft | 289 kts | 333° |
| 2026-05-08 03:08 | 54.52506 | -2.64657 | 24039 ft | 290 kts | 333° |
| 2026-05-08 03:08 | 54.54369 | -2.65976 | 24038 ft | 290 kts | 333° |
| 2026-05-08 03:09 | 54.56231 | -2.67296 | 24035 ft | 290 kts | 333° |
| 2026-05-08 03:09 | 54.58096 | -2.68622 | 24037 ft | 290 kts | 333° |
| 2026-05-08 03:09 | 54.59965 | -2.69950 | 24035 ft | 290 kts | 333° |
| 2026-05-08 03:09 | 54.61831 | -2.71276 | 24032 ft | 290 kts | 333° |
| 2026-05-08 03:10 | 54.63695 | -2.72602 | 24034 ft | 290 kts | 333° |
| 2026-05-08 03:10 | 54.65561 | -2.73931 | 24033 ft | 290 kts | 333° |
| 2026-05-08 03:10 | 54.67425 | -2.75260 | 24036 ft | 290 kts | 332° |
| 2026-05-08 03:10 | 54.69291 | -2.76592 | 24030 ft | 290 kts | 332° |
| 2026-05-08 03:11 | 54.71157 | -2.77926 | 24030 ft | 290 kts | 332° |
| 2026-05-08 03:11 | 54.73028 | -2.79265 | 24030 ft | 291 kts | 332° |
| 2026-05-08 03:11 | 54.74897 | -2.80605 | 24014 ft | 291 kts | 332° |
| 2026-05-08 03:11 | 54.76741 | -2.81924 | 24020 ft | 290 kts | 332° |
| 2026-05-08 03:12 | 54.78607 | -2.83261 | 24027 ft | 291 kts | 332° |
| 2026-05-08 03:12 | 54.80474 | -2.84601 | 24015 ft | 291 kts | 332° |
| 2026-05-08 03:12 | 54.82343 | -2.85946 | 24020 ft | 291 kts | 332° |
| 2026-05-08 03:12 | 54.84214 | -2.87291 | 24015 ft | 291 kts | 332° |
| 2026-05-08 03:13 | 54.86082 | -2.88638 | 24018 ft | 291 kts | 332° |
| 2026-05-08 03:13 | 54.87951 | -2.89986 | 24014 ft | 291 kts | 332° |
| 2026-05-08 03:13 | 54.89821 | -2.91335 | 24012 ft | 291 kts | 332° |
| 2026-05-08 03:13 | 54.91692 | -2.92687 | 24015 ft | 291 kts | 332° |
| 2026-05-08 03:14 | 54.93561 | -2.94039 | 24007 ft | 291 kts | 332° |
| 2026-05-08 03:14 | 54.95432 | -2.95393 | 24011 ft | 291 kts | 332° |
| 2026-05-08 03:14 | 54.97301 | -2.96749 | 24015 ft | 291 kts | 332° |
| 2026-05-08 03:14 | 54.99174 | -2.98107 | 24009 ft | 291 kts | 332° |
| 2026-05-08 03:15 | 55.01042 | -2.99464 | 24016 ft | 291 kts | 332° |
| 2026-05-08 03:15 | 55.02913 | -3.00824 | 24016 ft | 291 kts | 332° |
| 2026-05-08 03:15 | 55.04759 | -3.02167 | 24016 ft | 291 kts | 332° |
| 2026-05-08 03:15 | 55.06631 | -3.03531 | 24010 ft | 292 kts | 332° |
| 2026-05-08 03:16 | 55.08503 | -3.04896 | 24009 ft | 292 kts | 332° |
| 2026-05-08 03:16 | 55.10378 | -3.06265 | 24017 ft | 292 kts | 332° |
| 2026-05-08 03:16 | 55.12254 | -3.07637 | 24013 ft | 292 kts | 332° |
| 2026-05-08 03:16 | 55.14130 | -3.09008 | 24006 ft | 292 kts | 332° |
| 2026-05-08 03:17 | 55.16008 | -3.10379 | 24012 ft | 292 kts | 332° |
| 2026-05-08 03:17 | 55.17887 | -3.11754 | 24018 ft | 293 kts | 332° |
| 2026-05-08 03:17 | 55.19764 | -3.13132 | 24013 ft | 293 kts | 332° |
| 2026-05-08 03:17 | 55.21643 | -3.14512 | 24011 ft | 293 kts | 332° |
| 2026-05-08 03:18 | 55.23524 | -3.15895 | 24012 ft | 293 kts | 331° |
| 2026-05-08 03:18 | 55.25403 | -3.17278 | 24010 ft | 293 kts | 331° |
| 2026-05-08 03:18 | 55.27282 | -3.18662 | 24009 ft | 293 kts | 331° |
| 2026-05-08 03:18 | 55.29163 | -3.20049 | 24006 ft | 293 kts | 331° |
| 2026-05-08 03:19 | 55.31039 | -3.21432 | 23999 ft | 293 kts | 331° |
| 2026-05-08 03:19 | 55.32915 | -3.22821 | 24006 ft | 293 kts | 331° |
| 2026-05-08 03:19 | 55.34771 | -3.24196 | 24006 ft | 293 kts | 331° |
| 2026-05-08 03:19 | 55.36647 | -3.25589 | 24004 ft | 293 kts | 331° |
| 2026-05-08 03:20 | 55.38526 | -3.26986 | 24003 ft | 293 kts | 331° |
| 2026-05-08 03:20 | 55.40404 | -3.28378 | 23999 ft | 293 kts | 331° |
| 2026-05-08 03:20 | 55.42284 | -3.29772 | 23999 ft | 293 kts | 331° |
| 2026-05-08 03:20 | 55.44159 | -3.31165 | 24003 ft | 293 kts | 331° |
| 2026-05-08 03:21 | 55.46039 | -3.32560 | 24000 ft | 293 kts | 331° |
| 2026-05-08 03:21 | 55.47917 | -3.33956 | 23997 ft | 293 kts | 331° |
| 2026-05-08 03:21 | 55.49829 | -3.35256 | 23996 ft | 295 kts | 335° |
| 2026-05-08 03:21 | 55.51801 | -3.36307 | 23993 ft | 297 kts | 339° |
| 2026-05-08 03:22 | 55.53803 | -3.37227 | 23994 ft | 297 kts | 339° |
| 2026-05-08 03:22 | 55.55802 | -3.38167 | 23989 ft | 297 kts | 339° |
| 2026-05-08 03:22 | 55.57798 | -3.39114 | 23995 ft | 297 kts | 339° |
| 2026-05-08 03:22 | 55.59768 | -3.40049 | 23993 ft | 297 kts | 339° |
| 2026-05-08 03:23 | 55.61770 | -3.40996 | 23987 ft | 297 kts | 339° |
| 2026-05-08 03:23 | 55.63769 | -3.41942 | 23985 ft | 297 kts | 339° |
| 2026-05-08 03:23 | 55.65773 | -3.42889 | 23983 ft | 298 kts | 339° |
| 2026-05-08 03:23 | 55.67775 | -3.43836 | 23977 ft | 297 kts | 339° |
| 2026-05-08 03:24 | 55.69774 | -3.44781 | 23976 ft | 297 kts | 339° |
| 2026-05-08 03:24 | 55.71772 | -3.45726 | 23974 ft | 297 kts | 339° |
| 2026-05-08 03:24 | 55.73766 | -3.46672 | 23972 ft | 297 kts | 339° |
| 2026-05-08 03:24 | 55.75767 | -3.47622 | 23975 ft | 297 kts | 339° |
| 2026-05-08 03:25 | 55.77764 | -3.48570 | 23974 ft | 297 kts | 339° |
| 2026-05-08 03:25 | 55.79734 | -3.49507 | 23971 ft | 297 kts | 339° |
| 2026-05-08 03:25 | 55.81757 | -3.50470 | 23974 ft | 297 kts | 339° |
| 2026-05-08 03:25 | 55.83752 | -3.51421 | 23965 ft | 297 kts | 339° |
| 2026-05-08 03:26 | 55.85751 | -3.52373 | 23966 ft | 297 kts | 339° |
| 2026-05-08 03:26 | 55.87746 | -3.53325 | 23966 ft | 297 kts | 339° |
| 2026-05-08 03:26 | 55.89713 | -3.54265 | 23969 ft | 297 kts | 339° |
| 2026-05-08 03:26 | 55.91709 | -3.55221 | 23970 ft | 297 kts | 339° |
| 2026-05-08 03:27 | 55.93703 | -3.56176 | 23967 ft | 297 kts | 339° |
| 2026-05-08 03:27 | 55.95696 | -3.57131 | 23965 ft | 297 kts | 339° |
| 2026-05-08 03:27 | 55.97019 | -3.57767 | 23967 ft | 297 kts | 339° |
| 2026-05-08 03:27 | 55.99685 | -3.59047 | 23969 ft | 297 kts | 339° |
| 2026-05-08 03:28 | 56.01006 | -3.59682 | 23968 ft | 297 kts | 339° |
| 2026-05-08 03:28 | 56.02999 | -3.60642 | 23970 ft | 297 kts | 338° |
| 2026-05-08 03:28 | 56.04997 | -3.61604 | 23966 ft | 297 kts | 338° |
| 2026-05-08 03:28 | 56.06993 | -3.62567 | 23968 ft | 297 kts | 338° |
| 2026-05-08 03:29 | 56.08989 | -3.63531 | 23971 ft | 297 kts | 338° |
| 2026-05-08 03:29 | 56.10986 | -3.64497 | 23970 ft | 297 kts | 338° |
| 2026-05-08 03:29 | 56.12980 | -3.65463 | 23970 ft | 297 kts | 338° |
| 2026-05-08 03:29 | 56.14977 | -3.66430 | 23966 ft | 297 kts | 338° |
| 2026-05-08 03:30 | 56.19119 | -3.67247 | 23959 ft | 308 kts | 3° |
| 2026-05-08 03:30 | 56.23006 | -3.64180 | 23962 ft | 314 kts | 42° |
| 2026-05-08 03:31 | 56.26440 | -3.59330 | 23956 ft | 314 kts | 32° |
| 2026-05-08 03:31 | 56.30103 | -3.55010 | 23958 ft | 314 kts | 32° |
| 2026-05-08 03:32 | 56.31918 | -3.52812 | 23958 ft | 314 kts | 33° |
| 2026-05-08 03:32 | 56.33716 | -3.50581 | 23958 ft | 314 kts | 34° |
| 2026-05-08 03:32 | 56.35486 | -3.48344 | 23919 ft | 306 kts | 34° |
| 2026-05-08 03:32 | 56.37234 | -3.46117 | 23545 ft | 310 kts | 34° |
| 2026-05-08 03:33 | 56.38977 | -3.43885 | 23098 ft | 303 kts | 34° |
| 2026-05-08 03:33 | 56.40681 | -3.41696 | 22652 ft | 299 kts | 34° |
| 2026-05-08 03:33 | 56.42370 | -3.39518 | 22218 ft | 297 kts | 34° |
| 2026-05-08 03:33 | 56.44045 | -3.37349 | 21785 ft | 296 kts | 34° |
| 2026-05-08 03:34 | 56.45718 | -3.35200 | 21347 ft | 295 kts | 33° |
| 2026-05-08 03:34 | 56.47387 | -3.33131 | 20938 ft | 294 kts | 33° |
| 2026-05-08 03:34 | 56.49083 | -3.31050 | 20550 ft | 295 kts | 33° |
| 2026-05-08 03:34 | 56.50785 | -3.28969 | 20167 ft | 295 kts | 33° |
| 2026-05-08 03:35 | 56.52485 | -3.26885 | 19788 ft | 295 kts | 33° |
| 2026-05-08 03:35 | 56.54179 | -3.24801 | 19416 ft | 294 kts | 33° |
| 2026-05-08 03:35 | 56.55869 | -3.22714 | 19047 ft | 293 kts | 33° |
| 2026-05-08 03:35 | 56.57504 | -3.20682 | 18692 ft | 292 kts | 33° |
| 2026-05-08 03:36 | 56.59175 | -3.18602 | 18329 ft | 291 kts | 33° |
| 2026-05-08 03:36 | 56.60842 | -3.16525 | 17902 ft | 290 kts | 33° |
| 2026-05-08 03:36 | 56.62494 | -3.14467 | 17496 ft | 284 kts | 33° |
| 2026-05-08 03:36 | 56.64106 | -3.12460 | 17123 ft | 278 kts | 33° |
| 2026-05-08 03:37 | 56.65691 | -3.10479 | 16748 ft | 275 kts | 33° |
| 2026-05-08 03:37 | 56.67260 | -3.08520 | 16379 ft | 272 kts | 33° |
| 2026-05-08 03:37 | 56.68816 | -3.06586 | 16007 ft | 270 kts | 33° |
| 2026-05-08 03:37 | 56.70364 | -3.04663 | 15650 ft | 269 kts | 32° |
| 2026-05-08 03:38 | 56.71909 | -3.02767 | 15287 ft | 267 kts | 32° |
| 2026-05-08 03:38 | 56.73435 | -3.00882 | 14947 ft | 263 kts | 33° |
| 2026-05-08 03:38 | 56.74926 | -2.98995 | 14621 ft | 259 kts | 33° |
| 2026-05-08 03:38 | 56.76390 | -2.97112 | 14304 ft | 257 kts | 34° |
| 2026-05-08 03:39 | 56.77835 | -2.95209 | 13989 ft | 255 kts | 34° |
| 2026-05-08 03:39 | 56.79286 | -2.93364 | 13665 ft | 254 kts | 33° |
| 2026-05-08 03:39 | 56.80737 | -2.91553 | 13304 ft | 252 kts | 33° |
| 2026-05-08 03:39 | 56.82194 | -2.89750 | 12950 ft | 252 kts | 32° |
| 2026-05-08 03:40 | 56.83648 | -2.87953 | 12599 ft | 253 kts | 33° |
| 2026-05-08 03:40 | 56.85077 | -2.86158 | 12258 ft | 252 kts | 34° |
| 2026-05-08 03:40 | 56.86509 | -2.84308 | 11920 ft | 252 kts | 34° |
| 2026-05-08 03:40 | 56.87933 | -2.82450 | 11586 ft | 252 kts | 35° |
| 2026-05-08 03:41 | 56.89360 | -2.80594 | 11250 ft | 251 kts | 34° |
| 2026-05-08 03:41 | 56.90794 | -2.78771 | 10936 ft | 250 kts | 34° |
| 2026-05-08 03:41 | 56.92219 | -2.76980 | 10712 ft | 247 kts | 33° |
| 2026-05-08 03:41 | 56.93639 | -2.75228 | 10493 ft | 245 kts | 33° |
| 2026-05-08 03:42 | 56.95042 | -2.73469 | 10270 ft | 244 kts | 34° |
| 2026-05-08 03:42 | 56.96433 | -2.71698 | 10038 ft | 242 kts | 35° |
| 2026-05-08 03:42 | 56.97812 | -2.69925 | 9814 ft | 242 kts | 34° |
| 2026-05-08 03:42 | 56.99194 | -2.68164 | 9569 ft | 242 kts | 35° |
| 2026-05-08 03:43 | 57.00569 | -2.66409 | 9310 ft | 240 kts | 34° |
| 2026-05-08 03:43 | 57.01918 | -2.64679 | 9074 ft | 239 kts | 35° |
| 2026-05-08 03:43 | 57.03276 | -2.62919 | 8841 ft | 239 kts | 35° |
| 2026-05-08 03:43 | 57.04638 | -2.61172 | 8611 ft | 239 kts | 34° |
| 2026-05-08 03:44 | 57.05994 | -2.59429 | 8368 ft | 238 kts | 34° |
| 2026-05-08 03:44 | 57.07348 | -2.57686 | 8137 ft | 237 kts | 34° |
| 2026-05-08 03:44 | 57.08699 | -2.55945 | 7907 ft | 237 kts | 34° |
| 2026-05-08 03:44 | 57.10051 | -2.54203 | 7684 ft | 237 kts | 34° |
| 2026-05-08 03:45 | 57.11401 | -2.52459 | 7460 ft | 237 kts | 34° |
| 2026-05-08 03:45 | 57.12747 | -2.50710 | 7230 ft | 236 kts | 35° |
| 2026-05-08 03:45 | 57.14090 | -2.48963 | 6997 ft | 236 kts | 34° |
| 2026-05-08 03:45 | 57.15430 | -2.47229 | 6774 ft | 235 kts | 34° |
| 2026-05-08 03:46 | 57.16755 | -2.45524 | 6553 ft | 235 kts | 34° |
| 2026-05-08 03:46 | 57.18098 | -2.43803 | 6334 ft | 235 kts | 34° |
| 2026-05-08 03:46 | 57.19433 | -2.42062 | 6093 ft | 235 kts | 35° |
| 2026-05-08 03:46 | 57.20765 | -2.40319 | 5858 ft | 234 kts | 34° |
| 2026-05-08 03:47 | 57.22092 | -2.38588 | 5617 ft | 234 kts | 34° |
| 2026-05-08 03:47 | 57.23423 | -2.36866 | 5390 ft | 233 kts | 34° |
| 2026-05-08 03:47 | 57.24751 | -2.35154 | 5161 ft | 233 kts | 34° |
| 2026-05-08 03:47 | 57.26073 | -2.33423 | 4932 ft | 233 kts | 35° |
| 2026-05-08 03:48 | 57.27385 | -2.31684 | 4711 ft | 233 kts | 35° |
| 2026-05-08 03:48 | 57.28703 | -2.29949 | 4473 ft | 232 kts | 34° |
| 2026-05-08 03:48 | 57.29989 | -2.28290 | 4238 ft | 211 kts | 33° |
| 2026-05-08 03:48 | 57.31201 | -2.27028 | 4049 ft | 192 kts | 18° |
| 2026-05-08 03:49 | 57.32457 | -2.26400 | 3856 ft | 183 kts | 5° |
| 2026-05-08 03:49 | 57.33794 | -2.26048 | 3682 ft | 210 kts | 2° |
| 2026-05-08 03:49 | 57.35301 | -2.25710 | 3519 ft | 217 kts | 2° |
| 2026-05-08 03:49 | 57.36696 | -2.25610 | 3336 ft | 190 kts | 340° |
| 2026-05-08 03:50 | 57.37719 | -2.26824 | 3153 ft | 167 kts | 296° |
| 2026-05-08 03:50 | 57.37944 | -2.28781 | 2976 ft | 157 kts | 254° |
| 2026-05-08 03:50 | 57.37417 | -2.30535 | 2807 ft | 159 kts | 223° |
| 2026-05-08 03:50 | 57.36428 | -2.31412 | 2632 ft | 161 kts | 191° |
| 2026-05-08 03:51 | 57.35337 | -2.31013 | 2475 ft | 166 kts | 161° |
| 2026-05-08 03:51 | 57.34306 | -2.30134 | 2456 ft | 161 kts | 163° |
| 2026-05-08 03:51 | 57.33236 | -2.29469 | 2457 ft | 162 kts | 166° |
| 2026-05-08 03:51 | 57.32217 | -2.28670 | 2455 ft | 157 kts | 162° |
| 2026-05-08 03:52 | 57.31277 | -2.27902 | 2423 ft | 137 kts | 166° |
| 2026-05-08 03:52 | 57.30406 | -2.27289 | 2288 ft | 134 kts | 168° |
| 2026-05-08 03:52 | 57.29529 | -2.26718 | 2099 ft | 132 kts | 168° |
| 2026-05-08 03:52 | 57.28681 | -2.26120 | 1914 ft | 129 kts | 167° |
| 2026-05-08 03:53 | 57.27896 | -2.25521 | 1760 ft | 113 kts | 167° |
| 2026-05-08 03:53 | 57.27191 | -2.25001 | 1595 ft | 106 kts | 168° |
| 2026-05-08 03:53 | 57.26510 | -2.24493 | 1465 ft | 106 kts | 165° |
| 2026-05-08 03:53 | 57.25824 | -2.23950 | 1322 ft | 108 kts | 164° |
| 2026-05-08 03:54 | 57.25146 | -2.23402 | 1147 ft | 104 kts | 163° |
| 2026-05-08 03:54 | 57.24482 | -2.22890 | 1031 ft | 103 kts | 163° |
| 2026-05-08 03:54 | 57.23829 | -2.22423 | 924 ft | 102 kts | 161° |
| 2026-05-08 03:54 | 57.23160 | -2.21925 | 757 ft | 103 kts | 162° |
| 2026-05-08 03:55 | 57.22491 | -2.21473 | 579 ft | 105 kts | 161° |
| 2026-05-08 03:55 | 57.21813 | -2.20964 | 432 ft | 104 kts | 160° |
| 2026-05-08 03:55 | 57.21156 | -2.20486 | 273 ft | 101 kts | 160° |
| 2026-05-08 03:55 | 57.20564 | -2.20055 | 212 ft | 78 kts | 159° |
| 2026-05-08 03:56 | 57.20148 | -2.19743 | 206 ft | 43 kts | 157° |
| 2026-05-08 03:56 | 57.20002 | -2.19639 | 210 ft | 9 kts | 160° |
| 2026-05-08 03:56 | 57.19952 | -2.19607 | 207 ft | 14 kts | 163° |
| 2026-05-08 03:56 | 57.19833 | -2.19530 | 215 ft | 19 kts | 165° |
| 2026-05-08 03:57 | 57.19794 | -2.19476 | 211 ft | 5 kts | 354° |
| 2026-05-08 03:57 | 57.19858 | -2.19534 | 214 ft | 20 kts | 335° |
| 2026-05-08 03:57 | 57.20034 | -2.19692 | 214 ft | 29 kts | 337° |
| 2026-05-08 03:57 | 57.20184 | -2.19792 | 208 ft | 23 kts | 341° |
| 2026-05-08 03:58 | 57.20312 | -2.19862 | 206 ft | 12 kts | 359° |
| 2026-05-08 03:58 | 57.20354 | -2.19782 | 207 ft | 7 kts | 51° |
| 2026-05-08 03:58 | 57.20397 | -2.19771 | 207 ft | 7 kts | 7° |
| 2026-05-08 03:58 | 57.20467 | -2.19754 | 208 ft | 12 kts | 7° |
| 2026-05-08 03:59 | 57.20538 | -2.19745 | 202 ft | 8 kts | 9° |
| 2026-05-08 03:59 | 57.20587 | -2.19708 | 205 ft | 7 kts | 43° |
| 2026-05-08 03:59 | 57.20621 | -2.19633 | 196 ft | 8 kts | 51° |
| 2026-05-08 03:59 | 57.20660 | -2.19558 | 193 ft | 8 kts | 44° |
| 2026-05-08 04:00 | 57.20667 | -2.19502 | 194 ft | 3 kts | 144° |
| 2026-05-08 04:00 | 57.20643 | -2.19494 | 194 ft | 0 kts | 204° |